createdAt,value
2017-11-03T00:00:22.482Z,4.24
2017-11-03T00:01:24.045Z,4.20
2017-11-03T00:02:23.134Z,4.20
2017-11-03T00:03:22.516Z,4.23
2017-11-03T00:04:23.163Z,4.28
2017-11-03T00:05:23.455Z,4.32
2017-11-03T00:06:22.977Z,4.44
2017-11-03T00:07:24.045Z,4.50
2017-11-03T00:08:23.327Z,4.50
2017-11-03T00:09:23.221Z,4.49
2017-11-03T00:10:23.500Z,4.49
2017-11-03T00:11:22.731Z,4.52
2017-11-03T00:12:22.645Z,4.59
2017-11-03T00:13:22.888Z,4.67
2017-11-03T00:14:23.620Z,4.67
2017-11-03T00:15:22.755Z,4.67
2017-11-03T00:16:22.617Z,4.59
2017-11-03T00:17:22.607Z,4.56
2017-11-03T00:18:22.499Z,4.50
2017-11-03T00:19:22.883Z,4.49
2017-11-03T00:20:23.134Z,4.48
2017-11-03T00:21:23.151Z,4.56
2017-11-03T00:22:23.144Z,4.66
2017-11-03T00:23:23.389Z,4.71
2017-11-03T00:24:22.394Z,4.74
2017-11-03T00:25:23.880Z,4.73
2017-11-03T00:26:22.991Z,4.74
2017-11-03T00:27:23.399Z,4.77
2017-11-03T00:28:22.833Z,4.80
2017-11-03T00:29:23.106Z,4.82
2017-11-03T00:30:23.320Z,4.87
2017-11-03T00:31:23.344Z,4.89
2017-11-03T00:32:22.689Z,4.93
2017-11-03T00:33:22.938Z,4.96
2017-11-03T00:34:23.218Z,4.97
2017-11-03T00:35:22.412Z,5.00
2017-11-03T00:36:23.139Z,5.02
2017-11-03T00:37:23.307Z,5.05
2017-11-03T00:38:23.733Z,5.08
2017-11-03T00:39:23.841Z,5.12
2017-11-03T00:40:23.069Z,5.17
2017-11-03T00:41:23.776Z,5.23
2017-11-03T00:42:23.272Z,5.26
2017-11-03T00:43:23.743Z,5.30
2017-11-03T00:44:22.901Z,5.33
2017-11-03T00:45:23.115Z,5.41
2017-11-03T00:46:23.975Z,5.48
2017-11-03T00:47:22.719Z,5.54
2017-11-03T00:48:22.537Z,5.61
2017-11-03T00:49:22.686Z,5.66
2017-11-03T00:50:22.942Z,5.72
2017-11-03T00:51:23.547Z,5.76
2017-11-03T00:52:22.840Z,5.82
2017-11-03T00:53:23.269Z,5.83
2017-11-03T00:54:23.226Z,5.86
2017-11-03T00:55:23.147Z,5.90
2017-11-03T00:56:23.781Z,5.93
2017-11-03T00:57:23.021Z,5.94
2017-11-03T00:58:22.883Z,5.97
2017-11-03T00:59:22.801Z,5.98
2017-11-03T01:00:22.997Z,5.99
2017-11-03T01:01:23.484Z,6.02
2017-11-03T01:02:22.839Z,5.99
2017-11-03T01:03:23.133Z,5.98
2017-11-03T01:04:23.054Z,5.99
2017-11-03T01:05:22.752Z,6.01
2017-11-03T01:06:23.043Z,6.02
2017-11-03T01:07:23.594Z,6.02
2017-11-03T01:08:23.832Z,6.02
2017-11-03T01:09:22.661Z,6.05
2017-11-03T01:10:22.972Z,6.04
2017-11-03T01:11:22.992Z,6.05
2017-11-03T01:12:23.514Z,6.04
2017-11-03T01:13:23.192Z,6.02
2017-11-03T01:14:23.368Z,6.02
2017-11-03T01:15:22.722Z,6.01
2017-11-03T01:16:22.376Z,6.01
2017-11-03T01:17:23.691Z,5.97
2017-11-03T01:18:22.707Z,5.97
2017-11-03T01:19:23.020Z,5.91
2017-11-03T01:20:23.194Z,5.89
2017-11-03T01:21:23.077Z,5.86
2017-11-03T01:22:23.247Z,5.83
2017-11-03T01:23:23.433Z,5.82
2017-11-03T01:24:23.008Z,5.80
2017-11-03T01:25:23.207Z,5.79
2017-11-03T01:26:23.473Z,5.79
2017-11-03T01:27:22.738Z,5.76
2017-11-03T01:28:22.950Z,5.79
2017-11-03T01:29:23.267Z,5.73
2017-11-03T01:30:23.001Z,5.73
2017-11-03T01:31:22.843Z,5.71
2017-11-03T01:32:22.762Z,5.72
2017-11-03T01:33:22.979Z,5.71
2017-11-03T01:34:23.694Z,5.71
2017-11-03T01:35:22.559Z,5.71
2017-11-03T01:36:22.335Z,5.71
2017-11-03T01:37:23.264Z,5.69
2017-11-03T01:38:23.235Z,5.69
2017-11-03T01:39:23.493Z,5.71
2017-11-03T01:40:22.729Z,5.71
2017-11-03T01:41:23.405Z,5.71
2017-11-03T01:42:23.738Z,5.71
2017-11-03T01:43:22.613Z,5.71
2017-11-03T01:44:22.760Z,5.72
2017-11-03T01:45:22.992Z,5.72
2017-11-03T01:46:23.159Z,5.73
2017-11-03T01:47:22.900Z,5.71
2017-11-03T01:48:23.276Z,5.71
2017-11-03T01:49:23.017Z,5.71
2017-11-03T01:50:23.641Z,5.69
2017-11-03T01:51:22.564Z,5.69
2017-11-03T01:52:22.475Z,5.68
2017-11-03T01:53:22.670Z,5.68
2017-11-03T01:54:22.606Z,5.68
2017-11-03T01:55:22.858Z,5.68
2017-11-03T01:56:23.095Z,5.66
2017-11-03T01:57:23.602Z,5.69
2017-11-03T01:58:22.645Z,5.69
2017-11-03T01:59:23.227Z,5.68
2017-11-03T02:00:23.355Z,5.66
2017-11-03T02:01:23.627Z,5.65
2017-11-03T02:02:22.581Z,5.65
2017-11-03T02:03:22.874Z,5.68
2017-11-03T02:04:23.015Z,5.69
2017-11-03T02:05:23.258Z,5.69
2017-11-03T02:06:23.510Z,5.68
2017-11-03T02:07:22.928Z,5.65
2017-11-03T02:08:23.166Z,5.64
2017-11-03T02:09:23.556Z,5.62
2017-11-03T02:10:22.370Z,5.62
2017-11-03T02:11:23.955Z,5.62
2017-11-03T02:12:23.382Z,5.59
2017-11-03T02:13:23.655Z,5.59
2017-11-03T02:14:23.106Z,5.56
2017-11-03T02:15:23.126Z,5.56
2017-11-03T02:16:23.229Z,5.53
2017-11-03T02:17:23.088Z,5.50
2017-11-03T02:18:23.122Z,5.47
2017-11-03T02:19:23.135Z,5.43
2017-11-03T02:20:23.037Z,5.36
2017-11-03T02:21:23.709Z,5.35
2017-11-03T02:22:22.948Z,5.32
2017-11-03T02:23:23.410Z,5.30
2017-11-03T02:24:22.441Z,5.28
2017-11-03T02:25:23.807Z,5.28
2017-11-03T02:26:23.105Z,5.25
2017-11-03T02:27:23.118Z,5.23
2017-11-03T02:28:22.953Z,5.21
2017-11-03T02:29:23.232Z,5.18
2017-11-03T02:30:23.260Z,5.17
2017-11-03T02:31:23.961Z,5.12
2017-11-03T02:32:23.093Z,5.11
2017-11-03T02:33:23.418Z,5.10
2017-11-03T02:34:23.418Z,5.11
2017-11-03T02:35:23.717Z,5.10
2017-11-03T02:36:22.927Z,5.10
2017-11-03T02:37:23.235Z,5.08
2017-11-03T02:38:23.487Z,5.08
2017-11-03T02:39:22.970Z,5.07
2017-11-03T02:40:23.041Z,5.08
2017-11-03T02:41:23.190Z,5.05
2017-11-03T02:42:23.903Z,5.04
2017-11-03T02:43:22.763Z,5.00
2017-11-03T02:44:22.306Z,4.97
2017-11-03T02:45:23.577Z,4.97
2017-11-03T02:46:22.870Z,4.97
2017-11-03T02:47:23.572Z,4.96
2017-11-03T02:48:22.957Z,4.96
2017-11-03T02:49:23.000Z,4.96
2017-11-03T02:50:23.464Z,4.93
2017-11-03T02:51:22.323Z,4.94
2017-11-03T02:52:23.668Z,4.93
2017-11-03T02:53:22.824Z,4.89
2017-11-03T02:54:22.756Z,4.86
2017-11-03T02:55:23.104Z,4.78
2017-11-03T02:56:25.306Z,4.78
2017-11-03T02:57:23.947Z,4.78
2017-11-03T02:58:22.870Z,4.78
2017-11-03T02:59:22.694Z,4.77
2017-11-03T03:00:22.880Z,4.77
2017-11-03T03:01:23.201Z,4.75
2017-11-03T03:02:23.423Z,4.73
2017-11-03T03:03:23.683Z,4.73
2017-11-03T03:04:22.987Z,4.70
2017-11-03T03:05:22.791Z,4.67
2017-11-03T03:06:23.128Z,4.67
2017-11-03T03:07:23.638Z,4.67
2017-11-03T03:08:22.905Z,4.62
2017-11-03T03:09:22.701Z,4.60
2017-11-03T03:10:22.665Z,4.59
2017-11-03T03:11:22.546Z,4.58
2017-11-03T03:12:22.761Z,4.59
2017-11-03T03:13:23.374Z,4.60
2017-11-03T03:14:23.360Z,4.56
2017-11-03T03:15:23.230Z,4.52
2017-11-03T03:16:23.049Z,4.52
2017-11-03T03:17:23.219Z,4.53
2017-11-03T03:18:24.708Z,4.52
2017-11-03T03:19:22.604Z,4.52
2017-11-03T03:20:22.405Z,4.53
2017-11-03T03:21:22.774Z,4.50
2017-11-03T03:22:23.021Z,4.49
2017-11-03T03:23:23.746Z,4.50
2017-11-03T03:24:22.940Z,4.50
2017-11-03T03:25:22.848Z,4.50
2017-11-03T03:27:17.528Z,4.52
2017-11-03T03:28:17.561Z,4.52
2017-11-03T03:29:18.095Z,4.52
2017-11-03T03:30:18.106Z,4.52
2017-11-03T03:31:18.119Z,4.52
2017-11-03T03:32:18.219Z,4.53
2017-11-03T03:33:18.440Z,4.55
2017-11-03T03:34:17.363Z,4.55
2017-11-03T03:35:18.684Z,4.56
2017-11-03T03:36:17.886Z,4.56
2017-11-03T03:37:17.695Z,4.58
2017-11-03T03:38:18.086Z,4.59
2017-11-03T03:39:17.906Z,4.58
2017-11-03T03:40:18.180Z,4.58
2017-11-03T03:41:18.309Z,4.56
2017-11-03T03:42:18.579Z,4.53
2017-11-03T03:43:17.443Z,4.53
2017-11-03T03:44:17.687Z,4.52
2017-11-03T03:45:17.582Z,4.52
2017-11-03T03:46:18.101Z,4.52
2017-11-03T03:47:17.942Z,4.50
2017-11-03T03:48:18.333Z,4.48
2017-11-03T03:49:17.563Z,4.49
2017-11-03T03:50:17.439Z,4.44
2017-11-03T03:51:17.637Z,4.41
2017-11-03T03:52:17.795Z,4.42
2017-11-03T03:53:18.055Z,4.42
2017-11-03T03:54:17.948Z,4.41
2017-11-03T03:55:18.088Z,4.41
2017-11-03T03:56:18.300Z,4.40
2017-11-03T03:57:18.849Z,4.41
2017-11-03T03:58:18.126Z,4.38
2017-11-03T03:59:18.098Z,4.38
2017-11-03T04:00:17.894Z,4.35
2017-11-03T04:01:18.284Z,4.35
2017-11-03T04:02:17.847Z,4.32
2017-11-03T04:03:18.046Z,4.31
2017-11-03T04:04:17.922Z,4.31
2017-11-03T04:05:18.230Z,4.31
2017-11-03T04:06:18.397Z,4.32
2017-11-03T04:07:17.601Z,4.32
2017-11-03T04:08:17.533Z,4.32
2017-11-03T04:09:21.010Z,4.34
2017-11-03T04:10:17.834Z,4.38
2017-11-03T04:11:17.954Z,4.40
2017-11-03T04:12:18.278Z,4.38
2017-11-03T04:13:18.649Z,4.40
2017-11-03T04:14:18.625Z,4.40
2017-11-03T04:15:17.478Z,4.41
2017-11-03T04:16:17.378Z,4.40
2017-11-03T04:17:18.133Z,4.40
2017-11-03T04:18:17.987Z,4.42
2017-11-03T04:19:18.202Z,4.48
2017-11-03T04:20:17.941Z,4.50
2017-11-03T04:21:18.207Z,4.55
2017-11-03T04:22:17.949Z,4.56
2017-11-03T04:23:17.671Z,4.56
2017-11-03T04:24:17.803Z,4.60
2017-11-03T04:25:17.992Z,4.66
2017-11-03T04:26:17.827Z,4.67
2017-11-03T04:27:18.035Z,4.70
2017-11-03T04:28:17.942Z,4.75
2017-11-03T04:29:17.570Z,4.78
2017-11-03T04:30:17.385Z,4.82
2017-11-03T04:31:18.535Z,4.86
2017-11-03T04:32:17.892Z,4.89
2017-11-03T04:33:17.691Z,4.90
2017-11-03T04:34:17.832Z,4.92
2017-11-03T04:35:18.534Z,4.92
2017-11-03T04:36:17.712Z,4.94
2017-11-03T04:37:18.301Z,4.97
2017-11-03T04:38:18.408Z,4.99
2017-11-03T04:39:17.330Z,5.00
2017-11-03T04:40:18.179Z,5.05
2017-11-03T04:41:18.234Z,5.10
2017-11-03T04:42:18.680Z,5.11
2017-11-03T04:43:17.553Z,5.12
2017-11-03T04:44:17.337Z,5.15
2017-11-03T04:45:18.074Z,5.18
2017-11-03T04:46:18.030Z,5.21
2017-11-03T04:47:18.745Z,5.25
2017-11-03T04:48:17.951Z,5.26
2017-11-03T04:49:18.149Z,5.29
2017-11-03T04:50:17.854Z,5.30
2017-11-03T04:51:18.053Z,5.33
2017-11-03T04:52:18.720Z,5.38
2017-11-03T04:53:17.440Z,5.38
2017-11-03T04:54:17.673Z,5.41
2017-11-03T04:55:17.618Z,5.43
2017-11-03T04:56:17.433Z,5.44
2017-11-03T04:57:18.828Z,5.47
2017-11-03T04:58:17.606Z,5.48
2017-11-03T04:59:17.802Z,5.48
2017-11-03T05:00:17.714Z,5.53
2017-11-03T05:01:18.017Z,5.56
2017-11-03T05:02:18.436Z,5.56
2017-11-03T05:03:18.385Z,5.57
2017-11-03T05:04:17.550Z,5.61
2017-11-03T05:05:17.699Z,5.62
2017-11-03T05:06:34.839Z,5.62
2017-11-03T05:07:35.051Z,5.64
2017-11-03T05:08:35.359Z,5.64
2017-11-03T05:09:35.474Z,5.65
2017-11-03T05:10:35.702Z,5.68
2017-11-03T05:11:34.887Z,5.68
2017-11-03T05:12:35.509Z,5.68
2017-11-03T05:13:35.808Z,5.69
2017-11-03T05:14:35.038Z,5.68
2017-11-03T05:15:35.315Z,5.69
2017-11-03T05:16:35.058Z,5.71
2017-11-03T05:17:35.026Z,5.72
2017-11-03T05:18:35.126Z,5.73
2017-11-03T05:19:35.059Z,5.75
2017-11-03T05:20:35.205Z,5.75
2017-11-03T05:21:35.589Z,5.73
2017-11-03T05:22:51.299Z,5.72
2017-11-03T05:23:51.121Z,5.71
2017-11-03T05:24:50.964Z,5.69
2017-11-03T05:25:50.724Z,5.69
2017-11-03T05:26:50.451Z,5.68
2017-11-03T05:27:51.655Z,5.69
2017-11-03T05:28:51.441Z,5.69
2017-11-03T05:29:51.294Z,5.68
2017-11-03T05:30:51.679Z,5.69
2017-11-03T05:31:51.474Z,5.71
2017-11-03T05:32:51.860Z,5.69
2017-11-03T05:33:51.262Z,5.69
2017-11-03T05:34:51.106Z,5.71
2017-11-03T05:35:50.896Z,5.72
2017-11-03T05:36:51.133Z,5.72
2017-11-03T05:37:50.878Z,5.72
2017-11-03T05:38:51.611Z,5.73
2017-11-03T05:39:51.055Z,5.73
2017-11-03T05:40:50.883Z,5.73
2017-11-03T05:41:51.099Z,5.75
2017-11-03T05:42:51.013Z,5.79
2017-11-03T05:43:51.333Z,5.79
2017-11-03T05:44:51.526Z,5.80
2017-11-03T05:45:51.752Z,5.82
2017-11-03T05:46:51.854Z,5.82
2017-11-03T05:47:51.113Z,5.80
2017-11-03T05:48:51.743Z,5.82
2017-11-03T05:49:51.440Z,5.84
2017-11-03T05:50:51.232Z,5.84
2017-11-03T05:51:51.144Z,5.84
2017-11-03T05:52:51.314Z,5.86
2017-11-03T05:53:51.862Z,5.87
2017-11-03T05:54:51.140Z,5.89
2017-11-03T05:55:51.371Z,5.90
2017-11-03T05:56:51.368Z,5.93
2017-11-03T05:57:51.682Z,5.91
2017-11-03T05:58:52.614Z,5.94
2017-11-03T05:59:51.759Z,5.97
2017-11-03T06:00:50.936Z,5.98
2017-11-03T06:01:50.735Z,6.02
2017-11-03T06:02:50.996Z,6.05
2017-11-03T06:03:51.077Z,6.07
2017-11-03T06:04:51.486Z,6.07
2017-11-03T06:05:51.366Z,6.09
2017-11-03T06:06:51.741Z,6.09
2017-11-03T06:07:50.733Z,6.09
2017-11-03T06:08:50.714Z,6.09
2017-11-03T06:09:50.479Z,6.09
2017-11-03T06:10:51.740Z,6.09
2017-11-03T06:11:51.882Z,6.11
2017-11-03T06:12:50.692Z,6.12
2017-11-03T06:13:50.587Z,6.12
2017-11-03T06:14:51.337Z,6.12
2017-11-03T06:15:51.575Z,6.14
2017-11-03T06:16:51.662Z,6.16
2017-11-03T06:17:51.815Z,6.16
2017-11-03T06:18:50.716Z,6.17
2017-11-03T06:19:51.916Z,6.19
2017-11-03T06:20:51.136Z,6.20
2017-11-03T06:21:51.502Z,6.22
2017-11-03T06:22:52.296Z,6.24
2017-11-03T06:23:51.194Z,6.26
2017-11-03T06:24:51.440Z,6.26
2017-11-03T06:25:51.175Z,6.27
2017-11-03T06:26:51.474Z,6.26
2017-11-03T06:27:51.897Z,6.24
2017-11-03T06:28:51.956Z,6.24
2017-11-03T06:29:50.766Z,6.22
2017-11-03T06:31:58.332Z,6.17
2017-11-03T06:32:58.115Z,6.11
2017-11-03T06:33:58.791Z,6.07
2017-11-03T06:35:11.902Z,6.07
2017-11-03T06:36:12.392Z,6.04
2017-11-03T06:37:11.404Z,6.02
2017-11-03T06:38:11.325Z,6.01
2017-11-03T06:39:12.507Z,6.05
2017-11-03T06:40:11.310Z,6.08
2017-11-03T06:41:12.634Z,6.09
2017-11-03T06:42:11.716Z,6.12
2017-11-03T06:43:11.918Z,6.14
2017-11-03T06:44:12.248Z,6.12
2017-11-03T06:45:13.055Z,6.11
2017-11-03T06:46:12.071Z,6.09
2017-11-03T06:47:12.510Z,6.14
2017-11-03T06:48:11.710Z,6.12
2017-11-03T06:49:11.509Z,6.16
2017-11-03T06:50:11.800Z,6.19
2017-11-03T06:51:12.558Z,6.16
2017-11-03T06:52:11.465Z,6.19
2017-11-03T06:53:12.841Z,6.17
2017-11-03T06:54:12.677Z,6.16
2017-11-03T06:55:12.070Z,6.14
2017-11-03T06:56:12.404Z,6.11
2017-11-03T06:57:12.357Z,6.09
2017-11-03T06:58:12.716Z,6.08
2017-11-03T06:59:12.132Z,6.07
2017-11-03T07:00:12.129Z,6.04
2017-11-03T07:01:12.443Z,6.02
2017-11-03T07:02:12.233Z,6.01
2017-11-03T07:03:13.174Z,6.01
2017-11-03T07:04:11.946Z,6.02
2017-11-03T07:05:12.405Z,6.02
2017-11-03T07:06:13.113Z,6.04
2017-11-03T07:07:12.559Z,6.02
2017-11-03T07:08:11.835Z,6.04
2017-11-03T07:09:12.324Z,6.07
2017-11-03T07:10:12.676Z,6.05
2017-11-03T07:11:11.958Z,6.07
2017-11-03T07:12:12.173Z,6.09
2017-11-03T07:13:12.135Z,6.14
2017-11-03T07:14:12.517Z,6.16
2017-11-03T07:15:12.569Z,6.20
2017-11-03T07:16:12.524Z,6.22
2017-11-03T07:17:11.935Z,6.22
2017-11-03T07:18:12.747Z,6.20
2017-11-03T07:19:12.207Z,6.20
2017-11-03T07:20:12.133Z,6.22
2017-11-03T07:21:12.057Z,6.20
2017-11-03T07:22:12.446Z,6.22
2017-11-03T07:23:13.192Z,6.26
2017-11-03T07:24:12.095Z,6.30
2017-11-03T07:25:11.888Z,6.30
2017-11-03T07:26:12.145Z,6.33
2017-11-03T07:27:12.132Z,6.33
2017-11-03T07:28:12.937Z,6.36
2017-11-03T07:29:11.794Z,6.33
2017-11-03T07:30:12.394Z,6.31
2017-11-03T07:31:12.673Z,6.38
2017-11-03T07:32:12.011Z,6.45
2017-11-03T07:33:12.648Z,6.48
2017-11-03T07:34:12.112Z,6.48
2017-11-03T07:35:12.581Z,6.54
2017-11-03T07:36:11.967Z,6.49
2017-11-03T07:37:11.877Z,6.51
2017-11-03T07:38:11.917Z,6.51
2017-11-03T07:39:12.631Z,6.54
2017-11-03T07:40:11.993Z,6.54
2017-11-03T07:41:12.239Z,6.56
2017-11-03T07:42:12.259Z,6.59
2017-11-03T07:43:12.720Z,6.60
2017-11-03T07:44:11.927Z,6.60
2017-11-03T07:45:12.164Z,6.63
2017-11-03T07:46:12.554Z,6.63
2017-11-03T07:47:11.530Z,6.63
2017-11-03T07:48:11.901Z,6.64
2017-11-03T07:49:12.514Z,6.70
2017-11-03T07:50:11.865Z,6.72
2017-11-03T07:51:12.653Z,6.75
2017-11-03T07:52:12.212Z,6.78
2017-11-03T07:53:12.645Z,6.81
2017-11-03T07:54:11.934Z,6.85
2017-11-03T07:55:12.156Z,6.89
2017-11-03T07:56:12.842Z,6.88
2017-11-03T07:57:12.568Z,6.92
2017-11-03T07:58:11.969Z,6.95
2017-11-03T07:59:12.326Z,6.95
2017-11-03T08:00:12.633Z,6.99
2017-11-03T08:01:12.529Z,7.00
2017-11-03T08:02:11.537Z,7.03
2017-11-03T08:03:11.447Z,7.03
2017-11-03T08:04:12.403Z,7.10
2017-11-03T08:05:11.677Z,7.11
2017-11-03T08:06:11.969Z,7.13
2017-11-03T08:07:12.639Z,7.17
2017-11-03T08:08:11.814Z,7.20
2017-11-03T08:09:12.138Z,7.23
2017-11-03T08:10:12.350Z,7.24
2017-11-03T08:11:12.277Z,7.29
2017-11-03T08:12:12.918Z,7.32
2017-11-03T08:13:12.102Z,7.39
2017-11-03T08:14:12.411Z,7.47
2017-11-03T08:15:13.084Z,7.54
2017-11-03T08:16:11.400Z,7.60
2017-11-03T08:17:13.130Z,7.63
2017-11-03T08:18:12.705Z,7.66
2017-11-03T08:19:12.309Z,7.70
2017-11-03T08:20:11.893Z,7.72
2017-11-03T08:21:12.064Z,7.75
2017-11-03T08:22:12.839Z,7.77
2017-11-03T08:23:12.203Z,7.82
2017-11-03T08:24:13.039Z,7.87
2017-11-03T08:25:12.226Z,7.91
2017-11-03T08:26:12.276Z,7.97
2017-11-03T08:27:13.118Z,8.00
2017-11-03T08:28:12.515Z,8.05
2017-11-03T08:29:11.432Z,8.06
2017-11-03T08:30:12.764Z,8.12
2017-11-03T08:31:11.757Z,8.18
2017-11-03T08:32:12.168Z,8.16
2017-11-03T08:33:12.559Z,8.16
2017-11-03T08:34:12.492Z,8.20
2017-11-03T08:35:12.544Z,8.23
2017-11-03T08:36:11.579Z,8.24
2017-11-03T08:37:11.509Z,8.28
2017-11-03T08:38:12.581Z,8.38
2017-11-03T08:39:12.248Z,8.42
2017-11-03T08:40:12.564Z,8.49
2017-11-03T08:41:12.174Z,8.52
2017-11-03T08:42:12.366Z,8.56
2017-11-03T08:43:12.899Z,8.63
2017-11-03T08:44:11.912Z,8.69
2017-11-03T08:45:12.123Z,8.73
2017-11-03T08:46:12.158Z,8.74
2017-11-03T08:47:12.217Z,8.79
2017-11-03T08:48:11.558Z,8.87
2017-11-03T08:49:12.027Z,8.89
2017-11-03T08:50:12.043Z,8.91
2017-11-03T08:51:12.012Z,8.91
2017-11-03T08:52:12.021Z,8.95
2017-11-03T08:53:12.340Z,9.02
2017-11-03T08:54:12.024Z,9.03
2017-11-03T08:55:12.617Z,9.04
2017-11-03T08:56:11.556Z,9.10
2017-11-03T08:57:11.952Z,9.13
2017-11-03T08:58:12.354Z,9.18
2017-11-03T08:59:12.338Z,9.26
2017-11-03T09:00:13.113Z,9.31
2017-11-03T09:01:11.623Z,9.36
2017-11-03T09:02:12.008Z,9.40
2017-11-03T09:03:12.034Z,9.44
2017-11-03T09:04:11.942Z,9.36
2017-11-03T09:05:12.179Z,9.23
2017-11-03T09:06:12.663Z,9.26
2017-11-03T09:07:12.021Z,9.28
2017-11-03T09:08:11.974Z,9.29
2017-11-03T09:09:11.922Z,9.36
2017-11-03T09:10:12.845Z,9.44
2017-11-03T09:11:11.901Z,9.48
2017-11-03T09:12:11.794Z,9.40
2017-11-03T09:13:12.077Z,9.44
2017-11-03T09:14:11.952Z,9.46
2017-11-03T09:15:12.590Z,9.54
2017-11-03T09:16:11.438Z,9.56
2017-11-03T09:17:11.474Z,9.48
2017-11-03T09:18:12.012Z,9.50
2017-11-03T09:19:12.176Z,9.55
2017-11-03T09:20:12.945Z,9.54
2017-11-03T09:21:12.137Z,9.58
2017-11-03T09:22:12.025Z,9.51
2017-11-03T09:23:12.221Z,9.47
2017-11-03T09:24:12.158Z,9.47
2017-11-03T09:25:12.456Z,9.56
2017-11-03T09:26:12.368Z,9.62
2017-11-03T09:27:12.023Z,9.59
2017-11-03T09:28:12.090Z,9.64
2017-11-03T09:29:12.018Z,9.66
2017-11-03T09:30:13.247Z,9.72
2017-11-03T09:31:12.203Z,9.76
2017-11-03T09:32:12.676Z,9.82
2017-11-03T09:33:11.879Z,9.83
2017-11-03T09:34:12.171Z,9.82
2017-11-03T09:35:12.464Z,9.83
2017-11-03T09:36:12.566Z,9.80
2017-11-03T09:37:12.052Z,9.80
2017-11-03T09:38:11.931Z,9.84
2017-11-03T09:39:12.950Z,9.89
2017-11-03T09:40:11.795Z,9.92
2017-11-03T09:41:12.555Z,9.98
2017-11-03T09:42:11.531Z,10.05
2017-11-03T09:43:12.015Z,10.10
2017-11-03T09:44:12.054Z,10.13
2017-11-03T09:45:13.095Z,10.10
2017-11-03T09:46:12.299Z,10.09
2017-11-03T09:47:12.657Z,10.07
2017-11-03T09:48:11.919Z,10.07
2017-11-03T09:49:12.259Z,10.05
2017-11-03T09:50:12.827Z,10.07
2017-11-03T09:51:13.292Z,10.05
2017-11-03T09:52:12.319Z,10.09
2017-11-03T09:53:12.272Z,10.07
2017-11-03T09:54:12.320Z,10.09
2017-11-03T09:55:12.626Z,10.10
2017-11-03T09:56:11.542Z,10.15
2017-11-03T09:57:12.197Z,10.12
2017-11-03T09:58:12.074Z,10.15
2017-11-03T09:59:11.726Z,10.13
2017-11-03T10:00:11.715Z,10.19
2017-11-03T10:01:11.675Z,10.25
2017-11-03T10:02:11.762Z,10.28
2017-11-03T10:03:12.594Z,10.30
2017-11-03T10:04:11.636Z,10.30
2017-11-03T10:05:11.670Z,10.33
2017-11-03T10:06:11.724Z,10.37
2017-11-03T10:07:12.224Z,10.42
2017-11-03T10:08:11.759Z,10.51
2017-11-03T10:09:12.620Z,10.57
2017-11-03T10:10:12.137Z,10.51
2017-11-03T10:11:12.659Z,10.46
2017-11-03T10:12:12.193Z,10.46
2017-11-03T10:13:12.712Z,10.44
2017-11-03T10:14:12.644Z,10.46
2017-11-03T10:15:11.741Z,10.48
2017-11-03T10:16:12.049Z,10.53
2017-11-03T10:17:12.606Z,10.49
2017-11-03T10:18:11.752Z,10.46
2017-11-03T10:19:12.778Z,10.59
2017-11-03T10:20:11.914Z,10.57
2017-11-03T10:21:12.014Z,10.56
2017-11-03T10:22:12.212Z,10.57
2017-11-03T10:23:12.531Z,10.57
2017-11-03T10:24:11.896Z,10.57
2017-11-03T10:25:12.283Z,10.60
2017-11-03T10:26:12.552Z,10.59
2017-11-03T10:27:11.638Z,10.59
2017-11-03T10:28:11.737Z,10.60
2017-11-03T10:29:11.700Z,10.60
2017-11-03T10:30:12.135Z,10.64
2017-11-03T10:31:12.684Z,10.69
2017-11-03T10:32:12.132Z,10.75
2017-11-03T10:33:12.868Z,10.78
2017-11-03T10:34:12.334Z,10.82
2017-11-03T10:35:12.380Z,10.90
2017-11-03T10:36:13.245Z,10.94
2017-11-03T10:37:12.572Z,10.96
2017-11-03T10:38:12.002Z,10.96
2017-11-03T10:39:12.533Z,10.99
2017-11-03T10:40:12.098Z,11.02
2017-11-03T10:41:12.899Z,11.02
2017-11-03T10:42:12.564Z,11.05
2017-11-03T10:43:12.055Z,11.10
2017-11-03T10:44:11.721Z,11.14
2017-11-03T10:45:12.710Z,11.26
2017-11-03T10:46:12.263Z,11.22
2017-11-03T10:47:12.366Z,11.27
2017-11-03T10:48:12.962Z,11.30
2017-11-03T10:49:12.076Z,11.26
2017-11-03T10:50:12.115Z,11.29
2017-11-03T10:51:12.666Z,11.36
2017-11-03T10:52:11.844Z,11.43
2017-11-03T10:53:11.884Z,11.51
2017-11-03T10:54:12.608Z,11.59
2017-11-03T10:55:11.956Z,11.55
2017-11-03T10:56:12.539Z,11.51
2017-11-03T10:57:12.002Z,11.45
2017-11-03T10:58:12.032Z,11.51
2017-11-03T10:59:12.212Z,11.51
2017-11-03T11:00:12.365Z,11.55
2017-11-03T11:01:12.786Z,11.51
2017-11-03T11:02:12.198Z,11.50
2017-11-03T11:03:12.263Z,11.43
2017-11-03T11:04:12.411Z,11.36
2017-11-03T11:05:13.029Z,11.26
2017-11-03T11:06:12.531Z,11.29
2017-11-03T11:07:12.215Z,11.36
2017-11-03T11:08:12.346Z,11.36
2017-11-03T11:09:12.296Z,11.35
2017-11-03T11:10:12.798Z,11.37
2017-11-03T11:11:12.463Z,11.32
2017-11-03T11:12:11.958Z,11.27
2017-11-03T11:13:11.927Z,11.33
2017-11-03T11:14:11.951Z,11.33
2017-11-03T11:15:12.662Z,11.32
2017-11-03T11:16:12.922Z,11.26
2017-11-03T11:17:12.325Z,11.23
2017-11-03T11:18:13.797Z,11.23
2017-11-03T11:19:11.993Z,11.27
2017-11-03T11:20:12.422Z,11.32
2017-11-03T11:21:12.132Z,11.32
2017-11-03T11:22:12.206Z,11.25
2017-11-03T11:23:12.567Z,11.25
2017-11-03T11:24:12.067Z,11.23
2017-11-03T11:25:12.388Z,11.25
2017-11-03T11:26:12.714Z,11.15
2017-11-03T11:27:11.954Z,11.14
2017-11-03T11:28:12.512Z,11.15
2017-11-03T11:29:11.569Z,11.14
2017-11-03T11:30:11.469Z,11.12
2017-11-03T11:31:11.980Z,11.14
2017-11-03T11:32:12.421Z,11.14
2017-11-03T11:33:12.886Z,11.17
2017-11-03T11:34:13.000Z,11.19
2017-11-03T11:35:12.475Z,11.22
2017-11-03T11:36:12.783Z,11.23
2017-11-03T11:37:12.441Z,11.26
2017-11-03T11:38:13.261Z,11.27
2017-11-03T11:38:50.900Z,11.27
2017-11-03T11:39:51.567Z,11.32
2017-11-03T11:40:50.834Z,11.29
2017-11-03T11:41:50.961Z,11.25
2017-11-03T11:42:50.928Z,11.22
2017-11-03T11:43:51.586Z,11.25
2017-11-03T11:44:51.186Z,11.25
2017-11-03T11:45:51.235Z,11.27
2017-11-03T11:46:51.236Z,11.27
2017-11-03T11:47:52.282Z,11.17
2017-11-03T11:48:50.957Z,11.23
2017-11-03T11:49:51.840Z,11.22
2017-11-03T11:50:50.936Z,11.17
2017-11-03T11:51:50.555Z,11.08
2017-11-03T11:52:51.099Z,11.10
2017-11-03T11:53:51.183Z,11.14
2017-11-03T11:54:51.965Z,11.22
2017-11-03T11:55:51.108Z,11.22
2017-11-03T11:56:51.346Z,11.23
2017-11-03T11:57:50.780Z,11.22
2017-11-03T11:58:50.743Z,11.23
2017-11-03T11:59:51.152Z,11.25
2017-11-03T12:00:52.039Z,11.32
2017-11-03T12:01:51.227Z,11.36
2017-11-03T12:02:51.779Z,11.44
2017-11-03T12:03:51.450Z,11.50
2017-11-03T12:04:51.066Z,11.45
2017-11-03T12:05:51.540Z,11.45
2017-11-03T12:06:51.133Z,11.48
2017-11-03T12:07:50.960Z,11.48
2017-11-03T12:08:51.538Z,11.52
2017-11-03T12:09:51.438Z,11.48
2017-11-03T12:10:51.059Z,11.47
2017-11-03T12:11:52.096Z,11.51
2017-11-03T12:12:51.814Z,11.52
2017-11-03T12:13:51.032Z,11.52
2017-11-03T12:14:51.323Z,11.59
2017-11-03T12:15:50.774Z,11.63
2017-11-03T12:16:51.399Z,11.66
2017-11-03T12:17:52.414Z,11.65
2017-11-03T12:18:50.968Z,11.66
2017-11-03T12:19:51.484Z,11.69
2017-11-03T12:20:50.826Z,11.72
2017-11-03T12:21:51.936Z,11.72
2017-11-03T12:22:51.692Z,11.69
2017-11-03T12:23:51.043Z,11.66
2017-11-03T12:24:51.570Z,11.72
2017-11-03T12:25:50.993Z,11.75
2017-11-03T12:26:51.639Z,11.75
2017-11-03T12:27:51.062Z,11.65
2017-11-03T12:28:51.631Z,11.65
2017-11-03T12:29:51.402Z,11.68
2017-11-03T12:30:50.732Z,11.66
2017-11-03T12:31:51.337Z,11.65
2017-11-03T12:32:50.950Z,11.65
2017-11-03T12:33:51.607Z,11.68
2017-11-03T12:34:50.925Z,11.69
2017-11-03T12:35:51.068Z,11.62
2017-11-03T12:36:51.711Z,11.62
2017-11-03T12:37:51.187Z,11.59
2017-11-03T12:38:50.621Z,11.57
2017-11-03T12:39:51.378Z,11.54
2017-11-03T12:40:51.311Z,11.59
2017-11-03T12:41:51.087Z,11.59
2017-11-03T12:42:51.888Z,11.59
2017-11-03T12:43:51.316Z,11.60
2017-11-03T12:44:50.766Z,11.59
2017-11-03T12:45:51.263Z,11.54
2017-11-03T12:46:51.111Z,11.51
2017-11-03T12:47:51.738Z,11.52
2017-11-03T12:48:51.630Z,11.50
2017-11-03T12:49:50.956Z,11.50
2017-11-03T12:50:51.295Z,11.51
2017-11-03T12:51:50.896Z,11.50
2017-11-03T12:52:51.598Z,11.51
2017-11-03T12:53:50.981Z,11.54
2017-11-03T12:54:51.638Z,11.55
2017-11-03T12:55:51.172Z,11.57
2017-11-03T12:56:50.519Z,11.54
2017-11-03T12:57:51.272Z,11.50
2017-11-03T12:58:51.059Z,11.47
2017-11-03T12:59:51.831Z,11.48
2017-11-03T13:00:51.056Z,11.47
2017-11-03T13:01:51.720Z,11.50
2017-11-03T13:02:51.129Z,11.51
2017-11-03T13:03:51.309Z,11.50
2017-11-03T13:04:50.625Z,11.48
2017-11-03T13:05:51.035Z,11.52
2017-11-03T13:06:52.028Z,11.54
2017-11-03T13:07:51.327Z,11.55
2017-11-03T13:08:51.674Z,11.52
2017-11-03T13:09:51.450Z,11.52
2017-11-03T13:10:51.269Z,11.47
2017-11-03T13:11:51.653Z,11.43
2017-11-03T13:12:51.460Z,11.41
2017-11-03T13:13:50.999Z,11.40